sensor_id;sensor_type;location;lat;lon;timestamp;temperature;humidity
29731;DHT22;16639;51.488;0.152;2023-04-06T00:00:04;9.40;99.90
29731;DHT22;16639;51.488;0.152;2023-04-06T00:02:32;9.40;99.90
29731;DHT22;16639;51.488;0.152;2023-04-06T00:04:59;9.50;99.90
29731;DHT22;16639;51.488;0.152;2023-04-06T00:07:27;9.40;99.90
29731;DHT22;16639;51.488;0.152;2023-04-06T00:09:55;9.40;99.90
29731;DHT22;16639;51.488;0.152;2023-04-06T00:12:22;9.30;99.90
29731;DHT22;16639;51.488;0.152;2023-04-06T00:14:50;9.40;99.90
29731;DHT22;16639;51.488;0.152;2023-04-06T00:17:17;9.30;99.90
29731;DHT22;16639;51.488;0.152;2023-04-06T00:19:46;9.30;99.90
29731;DHT22;16639;51.488;0.152;2023-04-06T00:22:14;9.30;99.90
29731;DHT22;16639;51.488;0.152;2023-04-06T00:24:41;9.30;99.90
29731;DHT22;16639;51.488;0.152;2023-04-06T00:27:09;9.40;99.90
29731;DHT22;16639;51.488;0.152;2023-04-06T00:29:36;9.40;99.90
29731;DHT22;16639;51.488;0.152;2023-04-06T00:32:04;9.40;99.90
29731;DHT22;16639;51.488;0.152;2023-04-06T00:34:32;9.70;99.90
29731;DHT22;16639;51.488;0.152;2023-04-06T00:36:59;9.40;99.90
29731;DHT22;16639;51.488;0.152;2023-04-06T00:39:27;9.50;99.90
29731;DHT22;16639;51.488;0.152;2023-04-06T00:41:55;9.40;99.90
29731;DHT22;16639;51.488;0.152;2023-04-06T00:44:24;9.40;99.90
29731;DHT22;16639;51.488;0.152;2023-04-06T00:46:52;9.60;99.90
29731;DHT22;16639;51.488;0.152;2023-04-06T00:49:19;9.40;99.90
29731;DHT22;16639;51.488;0.152;2023-04-06T00:51:47;9.50;99.90
29731;DHT22;16639;51.488;0.152;2023-04-06T00:54:14;9.40;99.90
29731;DHT22;16639;51.488;0.152;2023-04-06T00:56:42;9.40;99.90
29731;DHT22;16639;51.488;0.152;2023-04-06T00:59:11;9.40;99.90
29731;DHT22;16639;51.488;0.152;2023-04-06T01:01:39;9.40;99.90
29731;DHT22;16639;51.488;0.152;2023-04-06T01:04:07;9.40;99.90
29731;DHT22;16639;51.488;0.152;2023-04-06T01:06:34;9.40;99.90
29731;DHT22;16639;51.488;0.152;2023-04-06T01:09:02;9.40;99.90
29731;DHT22;16639;51.488;0.152;2023-04-06T01:11:30;9.40;99.90
29731;DHT22;16639;51.488;0.152;2023-04-06T01:13:58;9.40;99.90
29731;DHT22;16639;51.488;0.152;2023-04-06T01:16:25;9.30;99.90
29731;DHT22;16639;51.488;0.152;2023-04-06T01:18:53;9.30;99.90
29731;DHT22;16639;51.488;0.152;2023-04-06T01:21:21;9.30;99.90
29731;DHT22;16639;51.488;0.152;2023-04-06T01:23:48;9.30;99.90
29731;DHT22;16639;51.488;0.152;2023-04-06T01:26:16;9.70;99.90
29731;DHT22;16639;51.488;0.152;2023-04-06T01:28:43;9.30;99.90
29731;DHT22;16639;51.488;0.152;2023-04-06T01:31:11;9.30;99.90
29731;DHT22;16639;51.488;0.152;2023-04-06T01:33:39;9.40;99.90
29731;DHT22;16639;51.488;0.152;2023-04-06T01:36:07;9.30;99.90
29731;DHT22;16639;51.488;0.152;2023-04-06T01:38:35;9.30;99.90
29731;DHT22;16639;51.488;0.152;2023-04-06T01:41:02;9.30;99.90
29731;DHT22;16639;51.488;0.152;2023-04-06T01:43:30;9.30;99.90
29731;DHT22;16639;51.488;0.152;2023-04-06T01:45:57;9.30;99.90
29731;DHT22;16639;51.488;0.152;2023-04-06T01:48:28;9.20;99.90
29731;DHT22;16639;51.488;0.152;2023-04-06T01:50:56;9.30;99.90
29731;DHT22;16639;51.488;0.152;2023-04-06T01:53:23;9.30;99.90
29731;DHT22;16639;51.488;0.152;2023-04-06T01:55:51;9.30;99.90
29731;DHT22;16639;51.488;0.152;2023-04-06T01:58:18;9.40;99.90
29731;DHT22;16639;51.488;0.152;2023-04-06T02:00:46;9.30;99.90
29731;DHT22;16639;51.488;0.152;2023-04-06T02:03:13;9.30;99.90
29731;DHT22;16639;51.488;0.152;2023-04-06T02:05:42;9.30;99.90
29731;DHT22;16639;51.488;0.152;2023-04-06T02:08:09;9.40;99.90
29731;DHT22;16639;51.488;0.152;2023-04-06T02:10:37;9.40;99.90
29731;DHT22;16639;51.488;0.152;2023-04-06T02:13:04;9.40;99.90
29731;DHT22;16639;51.488;0.152;2023-04-06T02:15:31;9.40;99.90
29731;DHT22;16639;51.488;0.152;2023-04-06T02:17:59;9.40;99.90
29731;DHT22;16639;51.488;0.152;2023-04-06T02:20:28;9.40;99.90
29731;DHT22;16639;51.488;0.152;2023-04-06T02:22:58;9.10;99.90
29731;DHT22;16639;51.488;0.152;2023-04-06T02:25:26;9.40;99.90
29731;DHT22;16639;51.488;0.152;2023-04-06T02:27:54;9.40;99.90
29731;DHT22;16639;51.488;0.152;2023-04-06T02:30:22;9.30;99.90
29731;DHT22;16639;51.488;0.152;2023-04-06T02:32:49;9.30;99.90
29731;DHT22;16639;51.488;0.152;2023-04-06T02:35:17;9.40;99.90
29731;DHT22;16639;51.488;0.152;2023-04-06T02:37:45;9.40;99.90
29731;DHT22;16639;51.488;0.152;2023-04-06T02:40:13;9.60;99.90
29731;DHT22;16639;51.488;0.152;2023-04-06T02:42:41;9.40;99.90
29731;DHT22;16639;51.488;0.152;2023-04-06T02:45:09;9.40;99.90
29731;DHT22;16639;51.488;0.152;2023-04-06T02:47:36;9.40;99.90
29731;DHT22;16639;51.488;0.152;2023-04-06T02:50:04;9.40;99.90
29731;DHT22;16639;51.488;0.152;2023-04-06T02:52:32;9.40;99.90
29731;DHT22;16639;51.488;0.152;2023-04-06T02:54:59;9.40;99.90
29731;DHT22;16639;51.488;0.152;2023-04-06T02:57:27;9.40;99.90
29731;DHT22;16639;51.488;0.152;2023-04-06T02:59:54;9.30;99.90
29731;DHT22;16639;51.488;0.152;2023-04-06T03:02:22;9.40;99.90
29731;DHT22;16639;51.488;0.152;2023-04-06T03:04:50;9.40;99.90
29731;DHT22;16639;51.488;0.152;2023-04-06T03:07:17;9.80;99.90
29731;DHT22;16639;51.488;0.152;2023-04-06T03:09:45;10.10;99.90
29731;DHT22;16639;51.488;0.152;2023-04-06T03:12:13;9.40;99.90
29731;DHT22;16639;51.488;0.152;2023-04-06T03:14:40;9.90;99.90
29731;DHT22;16639;51.488;0.152;2023-04-06T03:17:08;9.50;99.90
29731;DHT22;16639;51.488;0.152;2023-04-06T03:19:36;9.40;99.90
29731;DHT22;16639;51.488;0.152;2023-04-06T03:22:04;9.40;99.90
29731;DHT22;16639;51.488;0.152;2023-04-06T03:24:32;9.50;99.90
29731;DHT22;16639;51.488;0.152;2023-04-06T03:26:59;9.40;99.90
29731;DHT22;16639;51.488;0.152;2023-04-06T03:29:28;9.40;99.90
29731;DHT22;16639;51.488;0.152;2023-04-06T03:31:55;10.20;99.90
29731;DHT22;16639;51.488;0.152;2023-04-06T03:34:23;9.40;99.90
29731;DHT22;16639;51.488;0.152;2023-04-06T03:36:50;9.50;99.90
29731;DHT22;16639;51.488;0.152;2023-04-06T03:39:35;9.50;99.90
29731;DHT22;16639;51.488;0.152;2023-04-06T03:42:04;9.50;99.90
29731;DHT22;16639;51.488;0.152;2023-04-06T03:44:32;9.50;99.90
29731;DHT22;16639;51.488;0.152;2023-04-06T03:47:02;9.60;99.90
29731;DHT22;16639;51.488;0.152;2023-04-06T03:49:29;9.00;99.90
29731;DHT22;16639;51.488;0.152;2023-04-06T03:51:57;10.00;99.90
29731;DHT22;16639;51.488;0.152;2023-04-06T03:54:24;9.50;99.90
29731;DHT22;16639;51.488;0.152;2023-04-06T03:56:52;9.50;99.90
29731;DHT22;16639;51.488;0.152;2023-04-06T03:59:19;9.50;99.90
29731;DHT22;16639;51.488;0.152;2023-04-06T04:01:47;9.50;99.90
29731;DHT22;16639;51.488;0.152;2023-04-06T04:04:14;9.50;99.90
29731;DHT22;16639;51.488;0.152;2023-04-06T04:06:42;9.50;99.90
29731;DHT22;16639;51.488;0.152;2023-04-06T04:09:10;9.50;99.90
29731;DHT22;16639;51.488;0.152;2023-04-06T04:11:37;9.50;99.90
29731;DHT22;16639;51.488;0.152;2023-04-06T04:14:05;9.50;99.90
29731;DHT22;16639;51.488;0.152;2023-04-06T04:16:32;9.50;99.90
29731;DHT22;16639;51.488;0.152;2023-04-06T04:19:00;9.50;99.90
29731;DHT22;16639;51.488;0.152;2023-04-06T04:21:29;10.30;99.90
29731;DHT22;16639;51.488;0.152;2023-04-06T04:23:58;9.50;99.90
29731;DHT22;16639;51.488;0.152;2023-04-06T04:26:26;9.60;99.90
29731;DHT22;16639;51.488;0.152;2023-04-06T04:28:53;9.60;99.90
29731;DHT22;16639;51.488;0.152;2023-04-06T04:31:20;9.60;99.90
29731;DHT22;16639;51.488;0.152;2023-04-06T04:33:49;9.60;99.90
29731;DHT22;16639;51.488;0.152;2023-04-06T04:36:17;9.60;99.90
29731;DHT22;16639;51.488;0.152;2023-04-06T04:38:44;9.60;99.90
29731;DHT22;16639;51.488;0.152;2023-04-06T04:41:12;9.60;99.90
29731;DHT22;16639;51.488;0.152;2023-04-06T04:43:39;9.60;99.90
29731;DHT22;16639;51.488;0.152;2023-04-06T04:46:07;9.70;99.90
29731;DHT22;16639;51.488;0.152;2023-04-06T04:48:34;9.70;99.90
29731;DHT22;16639;51.488;0.152;2023-04-06T04:51:03;10.10;99.90
29731;DHT22;16639;51.488;0.152;2023-04-06T04:53:31;9.70;99.90
29731;DHT22;16639;51.488;0.152;2023-04-06T04:55:58;9.70;99.90
29731;DHT22;16639;51.488;0.152;2023-04-06T04:58:26;9.70;99.90
29731;DHT22;16639;51.488;0.152;2023-04-06T05:00:53;9.70;99.90
29731;DHT22;16639;51.488;0.152;2023-04-06T05:03:23;9.70;99.90
29731;DHT22;16639;51.488;0.152;2023-04-06T05:05:51;9.70;99.90
29731;DHT22;16639;51.488;0.152;2023-04-06T05:08:20;9.70;99.90
29731;DHT22;16639;51.488;0.152;2023-04-06T05:10:48;9.80;99.90
29731;DHT22;16639;51.488;0.152;2023-04-06T05:13:16;9.80;99.90
29731;DHT22;16639;51.488;0.152;2023-04-06T05:15:44;9.80;99.90
29731;DHT22;16639;51.488;0.152;2023-04-06T05:18:12;9.80;99.90
29731;DHT22;16639;51.488;0.152;2023-04-06T05:20:39;9.80;99.90
29731;DHT22;16639;51.488;0.152;2023-04-06T05:23:08;9.50;99.90
29731;DHT22;16639;51.488;0.152;2023-04-06T05:25:35;9.90;99.90
29731;DHT22;16639;51.488;0.152;2023-04-06T05:28:03;9.90;99.90
29731;DHT22;16639;51.488;0.152;2023-04-06T05:30:30;9.90;99.90
29731;DHT22;16639;51.488;0.152;2023-04-06T05:32:58;9.90;99.90
29731;DHT22;16639;51.488;0.152;2023-04-06T05:35:26;9.90;99.90
29731;DHT22;16639;51.488;0.152;2023-04-06T05:37:54;9.90;99.90
29731;DHT22;16639;51.488;0.152;2023-04-06T05:40:21;10.10;99.90
29731;DHT22;16639;51.488;0.152;2023-04-06T05:42:48;9.90;99.90
29731;DHT22;16639;51.488;0.152;2023-04-06T05:45:16;9.90;99.90
29731;DHT22;16639;51.488;0.152;2023-04-06T05:47:45;9.30;99.90
29731;DHT22;16639;51.488;0.152;2023-04-06T05:50:15;10.00;99.90
29731;DHT22;16639;51.488;0.152;2023-04-06T05:52:42;10.10;99.90
29731;DHT22;16639;51.488;0.152;2023-04-06T05:55:12;10.00;99.90
29731;DHT22;16639;51.488;0.152;2023-04-06T05:57:40;10.00;99.90
29731;DHT22;16639;51.488;0.152;2023-04-06T06:00:07;10.00;99.90
29731;DHT22;16639;51.488;0.152;2023-04-06T06:02:37;10.50;99.90
29731;DHT22;16639;51.488;0.152;2023-04-06T06:05:04;10.00;99.90
29731;DHT22;16639;51.488;0.152;2023-04-06T06:07:32;10.00;99.90
29731;DHT22;16639;51.488;0.152;2023-04-06T06:10:00;10.00;99.90
29731;DHT22;16639;51.488;0.152;2023-04-06T06:12:27;10.00;99.90
29731;DHT22;16639;51.488;0.152;2023-04-06T06:14:55;10.10;99.90
29731;DHT22;16639;51.488;0.152;2023-04-06T06:17:23;10.10;99.90
29731;DHT22;16639;51.488;0.152;2023-04-06T06:19:50;10.10;99.90
29731;DHT22;16639;51.488;0.152;2023-04-06T06:22:18;10.10;99.90
29731;DHT22;16639;51.488;0.152;2023-04-06T06:24:46;10.10;99.90
29731;DHT22;16639;51.488;0.152;2023-04-06T06:27:13;10.10;99.90
29731;DHT22;16639;51.488;0.152;2023-04-06T06:29:41;10.10;99.90
29731;DHT22;16639;51.488;0.152;2023-04-06T06:32:08;10.40;99.90
29731;DHT22;16639;51.488;0.152;2023-04-06T06:34:36;10.10;99.90
29731;DHT22;16639;51.488;0.152;2023-04-06T06:37:05;10.10;99.90
29731;DHT22;16639;51.488;0.152;2023-04-06T06:39:33;10.20;99.90
29731;DHT22;16639;51.488;0.152;2023-04-06T06:42:01;10.30;99.90
29731;DHT22;16639;51.488;0.152;2023-04-06T06:44:29;10.30;99.90
29731;DHT22;16639;51.488;0.152;2023-04-06T06:46:57;10.30;99.90
29731;DHT22;16639;51.488;0.152;2023-04-06T06:49:24;10.30;99.90
29731;DHT22;16639;51.488;0.152;2023-04-06T06:51:52;10.30;99.90
29731;DHT22;16639;51.488;0.152;2023-04-06T06:54:19;10.30;99.90
29731;DHT22;16639;51.488;0.152;2023-04-06T06:56:46;10.40;99.90
29731;DHT22;16639;51.488;0.152;2023-04-06T06:59:14;10.40;99.90
29731;DHT22;16639;51.488;0.152;2023-04-06T07:01:43;10.50;99.90
29731;DHT22;16639;51.488;0.152;2023-04-06T07:04:11;10.50;99.90
29731;DHT22;16639;51.488;0.152;2023-04-06T07:06:38;10.50;99.90
29731;DHT22;16639;51.488;0.152;2023-04-06T07:09:06;10.50;99.90
29731;DHT22;16639;51.488;0.152;2023-04-06T07:11:33;10.50;99.90
29731;DHT22;16639;51.488;0.152;2023-04-06T07:14:01;11.80;99.90
29731;DHT22;16639;51.488;0.152;2023-04-06T07:16:29;10.90;99.90
29731;DHT22;16639;51.488;0.152;2023-04-06T07:18:56;10.60;99.90
29731;DHT22;16639;51.488;0.152;2023-04-06T07:21:24;10.60;99.90
29731;DHT22;16639;51.488;0.152;2023-04-06T07:23:51;10.60;99.90
29731;DHT22;16639;51.488;0.152;2023-04-06T07:26:19;10.60;99.90
29731;DHT22;16639;51.488;0.152;2023-04-06T07:28:47;10.80;99.90
29731;DHT22;16639;51.488;0.152;2023-04-06T07:31:14;10.80;99.90
29731;DHT22;16639;51.488;0.152;2023-04-06T07:33:42;11.70;99.90
29731;DHT22;16639;51.488;0.152;2023-04-06T07:36:09;11.00;99.90
29731;DHT22;16639;51.488;0.152;2023-04-06T07:38:36;11.10;99.90
29731;DHT22;16639;51.488;0.152;2023-04-06T07:41:04;11.40;99.90
29731;DHT22;16639;51.488;0.152;2023-04-06T07:43:32;11.30;99.90
29731;DHT22;16639;51.488;0.152;2023-04-06T07:46:00;11.30;99.90
29731;DHT22;16639;51.488;0.152;2023-04-06T07:48:27;11.20;99.90
29731;DHT22;16639;51.488;0.152;2023-04-06T07:51:05;12.00;99.90
29731;DHT22;16639;51.488;0.152;2023-04-06T07:53:33;11.50;99.90
29731;DHT22;16639;51.488;0.152;2023-04-06T07:56:02;11.50;99.90
29731;DHT22;16639;51.488;0.152;2023-04-06T07:58:30;11.40;99.90
29731;DHT22;16639;51.488;0.152;2023-04-06T08:00:58;11.50;99.90
29731;DHT22;16639;51.488;0.152;2023-04-06T08:03:25;11.40;99.90
29731;DHT22;16639;51.488;0.152;2023-04-06T08:05:55;11.40;99.90
29731;DHT22;16639;51.488;0.152;2023-04-06T08:08:23;11.40;99.90
29731;DHT22;16639;51.488;0.152;2023-04-06T08:10:51;11.40;99.90
29731;DHT22;16639;51.488;0.152;2023-04-06T08:13:18;11.40;99.90
29731;DHT22;16639;51.488;0.152;2023-04-06T08:15:47;11.10;99.90
29731;DHT22;16639;51.488;0.152;2023-04-06T08:18:14;11.30;99.90
29731;DHT22;16639;51.488;0.152;2023-04-06T08:20:42;11.40;99.90
29731;DHT22;16639;51.488;0.152;2023-04-06T08:23:09;11.40;99.90
29731;DHT22;16639;51.488;0.152;2023-04-06T08:25:38;11.40;99.90
29731;DHT22;16639;51.488;0.152;2023-04-06T08:28:05;10.70;99.90
29731;DHT22;16639;51.488;0.152;2023-04-06T08:30:33;11.40;99.90
29731;DHT22;16639;51.488;0.152;2023-04-06T08:33:00;11.40;99.90
29731;DHT22;16639;51.488;0.152;2023-04-06T08:35:29;11.40;99.90
29731;DHT22;16639;51.488;0.152;2023-04-06T08:37:58;11.40;99.90
29731;DHT22;16639;51.488;0.152;2023-04-06T08:40:27;11.40;99.90
29731;DHT22;16639;51.488;0.152;2023-04-06T08:42:56;11.40;99.90
29731;DHT22;16639;51.488;0.152;2023-04-06T08:45:24;11.40;99.90
29731;DHT22;16639;51.488;0.152;2023-04-06T08:47:52;11.40;99.90
29731;DHT22;16639;51.488;0.152;2023-04-06T08:50:22;11.40;99.90
29731;DHT22;16639;51.488;0.152;2023-04-06T08:52:52;11.30;99.90
29731;DHT22;16639;51.488;0.152;2023-04-06T08:55:21;10.90;99.90
29731;DHT22;16639;51.488;0.152;2023-04-06T08:57:52;11.20;99.90
29731;DHT22;16639;51.488;0.152;2023-04-06T09:00:22;11.20;99.90
29731;DHT22;16639;51.488;0.152;2023-04-06T09:02:53;11.20;99.90
29731;DHT22;16639;51.488;0.152;2023-04-06T09:05:24;11.20;99.90
29731;DHT22;16639;51.488;0.152;2023-04-06T09:07:52;11.20;99.90
29731;DHT22;16639;51.488;0.152;2023-04-06T09:10:20;11.30;99.90
29731;DHT22;16639;51.488;0.152;2023-04-06T09:12:47;11.40;99.90
29731;DHT22;16639;51.488;0.152;2023-04-06T09:15:21;11.50;99.90
29731;DHT22;16639;51.488;0.152;2023-04-06T09:17:51;11.50;99.90
29731;DHT22;16639;51.488;0.152;2023-04-06T09:20:24;11.60;99.90
29731;DHT22;16639;51.488;0.152;2023-04-06T09:22:54;11.70;99.90
29731;DHT22;16639;51.488;0.152;2023-04-06T09:25:24;11.70;99.90
29731;DHT22;16639;51.488;0.152;2023-04-06T09:28:01;11.70;99.90
29731;DHT22;16639;51.488;0.152;2023-04-06T09:30:29;11.60;99.90
29731;DHT22;16639;51.488;0.152;2023-04-06T09:32:58;11.70;99.90
29731;DHT22;16639;51.488;0.152;2023-04-06T09:35:27;11.70;99.90
29731;DHT22;16639;51.488;0.152;2023-04-06T09:37:56;11.80;99.90
29731;DHT22;16639;51.488;0.152;2023-04-06T09:40:24;11.80;99.90
29731;DHT22;16639;51.488;0.152;2023-04-06T09:42:51;11.80;99.90
29731;DHT22;16639;51.488;0.152;2023-04-06T09:45:21;11.80;99.90
29731;DHT22;16639;51.488;0.152;2023-04-06T09:47:48;11.80;99.90
29731;DHT22;16639;51.488;0.152;2023-04-06T09:50:19;11.70;99.90
29731;DHT22;16639;51.488;0.152;2023-04-06T09:52:52;11.80;99.90
29731;DHT22;16639;51.488;0.152;2023-04-06T09:55:39;11.70;99.90
29731;DHT22;16639;51.488;0.152;2023-04-06T09:58:09;11.70;99.90
29731;DHT22;16639;51.488;0.152;2023-04-06T10:00:44;11.70;99.90
29731;DHT22;16639;51.488;0.152;2023-04-06T10:06:15;11.80;99.90
29731;DHT22;16639;51.488;0.152;2023-04-06T10:08:47;10.80;99.90
29731;DHT22;16639;51.488;0.152;2023-04-06T10:11:17;11.40;99.90
29731;DHT22;16639;51.488;0.152;2023-04-06T10:13:47;11.80;99.90
29731;DHT22;16639;51.488;0.152;2023-04-06T10:16:17;11.80;99.90
29731;DHT22;16639;51.488;0.152;2023-04-06T10:18:52;11.80;99.90
29731;DHT22;16639;51.488;0.152;2023-04-06T10:21:24;11.80;99.90
29731;DHT22;16639;51.488;0.152;2023-04-06T10:23:59;11.80;99.90
29731;DHT22;16639;51.488;0.152;2023-04-06T10:26:27;12.30;99.90
29731;DHT22;16639;51.488;0.152;2023-04-06T10:28:54;11.80;99.90
29731;DHT22;16639;51.488;0.152;2023-04-06T10:31:26;12.40;99.90
29731;DHT22;16639;51.488;0.152;2023-04-06T10:33:59;11.90;99.90
29731;DHT22;16639;51.488;0.152;2023-04-06T10:36:32;11.90;99.90
29731;DHT22;16639;51.488;0.152;2023-04-06T10:39:03;11.90;99.90
29731;DHT22;16639;51.488;0.152;2023-04-06T10:41:35;11.90;99.90
29731;DHT22;16639;51.488;0.152;2023-04-06T10:44:03;11.70;99.90
29731;DHT22;16639;51.488;0.152;2023-04-06T10:46:32;11.90;99.90
29731;DHT22;16639;51.488;0.152;2023-04-06T10:49:10;11.90;99.90
29731;DHT22;16639;51.488;0.152;2023-04-06T10:51:39;12.00;99.90
29731;DHT22;16639;51.488;0.152;2023-04-06T10:54:07;12.00;99.90
29731;DHT22;16639;51.488;0.152;2023-04-06T10:56:37;12.00;99.90
29731;DHT22;16639;51.488;0.152;2023-04-06T10:59:07;12.00;99.90
29731;DHT22;16639;51.488;0.152;2023-04-06T11:01:36;12.10;99.90
29731;DHT22;16639;51.488;0.152;2023-04-06T11:04:04;12.50;99.90
29731;DHT22;16639;51.488;0.152;2023-04-06T11:06:34;12.20;99.90
29731;DHT22;16639;51.488;0.152;2023-04-06T11:09:02;12.30;99.90
29731;DHT22;16639;51.488;0.152;2023-04-06T11:11:29;12.00;99.90
29731;DHT22;16639;51.488;0.152;2023-04-06T11:13:58;12.20;99.90
29731;DHT22;16639;51.488;0.152;2023-04-06T11:16:31;12.20;99.90
29731;DHT22;16639;51.488;0.152;2023-04-06T11:19:02;12.30;99.90
29731;DHT22;16639;51.488;0.152;2023-04-06T11:21:42;12.30;99.90
29731;DHT22;16639;51.488;0.152;2023-04-06T11:24:21;12.30;99.90
29731;DHT22;16639;51.488;0.152;2023-04-06T11:26:56;11.90;99.90
29731;DHT22;16639;51.488;0.152;2023-04-06T11:29:28;12.30;99.90
29731;DHT22;16639;51.488;0.152;2023-04-06T11:32:03;12.30;99.90
29731;DHT22;16639;51.488;0.152;2023-04-06T11:34:34;12.70;99.90
29731;DHT22;16639;51.488;0.152;2023-04-06T11:37:11;12.60;99.90
29731;DHT22;16639;51.488;0.152;2023-04-06T11:39:56;12.40;99.90
29731;DHT22;16639;51.488;0.152;2023-04-06T11:42:26;12.30;99.90
29731;DHT22;16639;51.488;0.152;2023-04-06T11:44:58;12.30;99.90
29731;DHT22;16639;51.488;0.152;2023-04-06T11:47:35;12.30;99.90
29731;DHT22;16639;51.488;0.152;2023-04-06T11:50:07;12.40;99.90
29731;DHT22;16639;51.488;0.152;2023-04-06T11:52:35;12.40;99.90
29731;DHT22;16639;51.488;0.152;2023-04-06T11:55:14;12.40;99.90
29731;DHT22;16639;51.488;0.152;2023-04-06T11:57:42;12.50;99.90
29731;DHT22;16639;51.488;0.152;2023-04-06T12:00:10;12.60;99.90
29731;DHT22;16639;51.488;0.152;2023-04-06T12:02:39;12.60;99.90
29731;DHT22;16639;51.488;0.152;2023-04-06T12:05:07;12.70;99.90
29731;DHT22;16639;51.488;0.152;2023-04-06T12:07:36;12.70;99.90
29731;DHT22;16639;51.488;0.152;2023-04-06T12:10:05;12.80;99.90
29731;DHT22;16639;51.488;0.152;2023-04-06T12:12:32;12.80;99.90
29731;DHT22;16639;51.488;0.152;2023-04-06T12:15:00;12.80;99.90
29731;DHT22;16639;51.488;0.152;2023-04-06T12:17:28;12.80;99.90
29731;DHT22;16639;51.488;0.152;2023-04-06T12:19:59;12.90;99.90
29731;DHT22;16639;51.488;0.152;2023-04-06T12:22:39;12.80;99.90
29731;DHT22;16639;51.488;0.152;2023-04-06T12:25:07;12.90;99.90
29731;DHT22;16639;51.488;0.152;2023-04-06T12:27:34;12.80;99.90
29731;DHT22;16639;51.488;0.152;2023-04-06T12:30:02;12.80;99.90
29731;DHT22;16639;51.488;0.152;2023-04-06T12:32:30;12.90;99.90
29731;DHT22;16639;51.488;0.152;2023-04-06T12:34:57;12.90;99.90
29731;DHT22;16639;51.488;0.152;2023-04-06T12:37:24;12.90;99.90
29731;DHT22;16639;51.488;0.152;2023-04-06T12:39:53;13.10;99.90
29731;DHT22;16639;51.488;0.152;2023-04-06T12:42:21;13.10;99.90
29731;DHT22;16639;51.488;0.152;2023-04-06T12:44:48;13.20;99.90
29731;DHT22;16639;51.488;0.152;2023-04-06T12:47:16;13.20;99.90
29731;DHT22;16639;51.488;0.152;2023-04-06T12:49:44;13.30;99.90
29731;DHT22;16639;51.488;0.152;2023-04-06T12:52:11;13.30;99.90
29731;DHT22;16639;51.488;0.152;2023-04-06T12:54:39;13.30;99.90
29731;DHT22;16639;51.488;0.152;2023-04-06T12:57:06;13.30;99.90
29731;DHT22;16639;51.488;0.152;2023-04-06T12:59:35;13.40;99.90
29731;DHT22;16639;51.488;0.152;2023-04-06T13:02:03;13.50;99.90
29731;DHT22;16639;51.488;0.152;2023-04-06T13:04:32;13.50;99.90
29731;DHT22;16639;51.488;0.152;2023-04-06T13:07:00;13.50;99.90
29731;DHT22;16639;51.488;0.152;2023-04-06T13:09:27;13.50;99.90
29731;DHT22;16639;51.488;0.152;2023-04-06T13:11:55;13.50;99.90
29731;DHT22;16639;51.488;0.152;2023-04-06T13:14:22;13.50;99.90
29731;DHT22;16639;51.488;0.152;2023-04-06T13:16:50;13.60;99.90
29731;DHT22;16639;51.488;0.152;2023-04-06T13:19:18;13.70;99.90
29731;DHT22;16639;51.488;0.152;2023-04-06T13:21:45;14.70;99.90
29731;DHT22;16639;51.488;0.152;2023-04-06T13:24:13;13.80;99.90
29731;DHT22;16639;51.488;0.152;2023-04-06T13:26:43;13.80;99.90
29731;DHT22;16639;51.488;0.152;2023-04-06T13:29:11;13.80;99.90
29731;DHT22;16639;51.488;0.152;2023-04-06T13:31:38;13.30;99.90
29731;DHT22;16639;51.488;0.152;2023-04-06T13:34:06;13.70;99.90
29731;DHT22;16639;51.488;0.152;2023-04-06T13:36:33;13.70;99.90
29731;DHT22;16639;51.488;0.152;2023-04-06T13:39:01;13.70;99.90
29731;DHT22;16639;51.488;0.152;2023-04-06T13:41:29;13.70;99.90
29731;DHT22;16639;51.488;0.152;2023-04-06T13:43:56;13.80;99.90
29731;DHT22;16639;51.488;0.152;2023-04-06T13:46:26;13.70;99.90
29731;DHT22;16639;51.488;0.152;2023-04-06T13:48:54;13.80;99.90
29731;DHT22;16639;51.488;0.152;2023-04-06T13:51:31;13.80;99.90
29731;DHT22;16639;51.488;0.152;2023-04-06T13:53:59;13.70;99.90
29731;DHT22;16639;51.488;0.152;2023-04-06T13:56:27;13.60;99.90
29731;DHT22;16639;51.488;0.152;2023-04-06T13:58:55;13.50;99.90
29731;DHT22;16639;51.488;0.152;2023-04-06T14:01:23;13.50;99.90
29731;DHT22;16639;51.488;0.152;2023-04-06T14:03:50;13.40;99.90
29731;DHT22;16639;51.488;0.152;2023-04-06T14:06:18;13.40;99.90
29731;DHT22;16639;51.488;0.152;2023-04-06T14:08:58;13.40;99.90
29731;DHT22;16639;51.488;0.152;2023-04-06T14:11:25;13.40;99.90
29731;DHT22;16639;51.488;0.152;2023-04-06T14:13:53;13.40;99.90
29731;DHT22;16639;51.488;0.152;2023-04-06T14:16:24;13.50;99.90
29731;DHT22;16639;51.488;0.152;2023-04-06T14:18:52;13.50;99.90
29731;DHT22;16639;51.488;0.152;2023-04-06T14:21:19;13.50;99.90
29731;DHT22;16639;51.488;0.152;2023-04-06T14:23:48;14.30;99.90
29731;DHT22;16639;51.488;0.152;2023-04-06T14:26:15;13.50;99.90
29731;DHT22;16639;51.488;0.152;2023-04-06T14:32:48;13.40;99.90
29731;DHT22;16639;51.488;0.152;2023-04-06T14:35:16;13.40;99.90
29731;DHT22;16639;51.488;0.152;2023-04-06T14:37:43;13.40;99.90
29731;DHT22;16639;51.488;0.152;2023-04-06T14:40:11;13.40;99.90
29731;DHT22;16639;51.488;0.152;2023-04-06T14:42:38;13.30;99.90
29731;DHT22;16639;51.488;0.152;2023-04-06T14:45:09;13.40;99.90
29731;DHT22;16639;51.488;0.152;2023-04-06T14:47:37;13.40;99.90
29731;DHT22;16639;51.488;0.152;2023-04-06T14:50:05;13.40;99.90
29731;DHT22;16639;51.488;0.152;2023-04-06T14:52:33;13.40;99.90
29731;DHT22;16639;51.488;0.152;2023-04-06T14:55:00;13.40;99.90
29731;DHT22;16639;51.488;0.152;2023-04-06T14:57:28;13.40;99.90
29731;DHT22;16639;51.488;0.152;2023-04-06T14:59:56;13.40;99.90
29731;DHT22;16639;51.488;0.152;2023-04-06T15:02:23;13.30;99.90
29731;DHT22;16639;51.488;0.152;2023-04-06T15:05:26;13.30;99.90
29731;DHT22;16639;51.488;0.152;2023-04-06T15:08:29;13.20;99.90
29731;DHT22;16639;51.488;0.152;2023-04-06T15:10:59;13.20;99.90
29731;DHT22;16639;51.488;0.152;2023-04-06T15:13:34;13.20;99.90
29731;DHT22;16639;51.488;0.152;2023-04-06T15:16:01;13.20;99.90
29731;DHT22;16639;51.488;0.152;2023-04-06T15:18:32;13.20;99.90
29731;DHT22;16639;51.488;0.152;2023-04-06T15:21:00;12.70;99.90
29731;DHT22;16639;51.488;0.152;2023-04-06T15:23:27;13.20;99.90
29731;DHT22;16639;51.488;0.152;2023-04-06T15:26:00;12.80;99.90
29731;DHT22;16639;51.488;0.152;2023-04-06T15:28:27;12.80;99.90
29731;DHT22;16639;51.488;0.152;2023-04-06T15:30:55;12.60;99.90
29731;DHT22;16639;51.488;0.152;2023-04-06T15:33:27;12.50;99.90
29731;DHT22;16639;51.488;0.152;2023-04-06T15:35:54;12.80;99.90
29731;DHT22;16639;51.488;0.152;2023-04-06T15:38:22;12.30;99.90
29731;DHT22;16639;51.488;0.152;2023-04-06T15:40:49;12.30;99.90
29731;DHT22;16639;51.488;0.152;2023-04-06T15:43:19;12.30;99.90
29731;DHT22;16639;51.488;0.152;2023-04-06T15:45:46;12.30;99.90
29731;DHT22;16639;51.488;0.152;2023-04-06T15:48:14;12.40;99.90
29731;DHT22;16639;51.488;0.152;2023-04-06T15:50:42;12.50;99.90
29731;DHT22;16639;51.488;0.152;2023-04-06T15:53:09;12.40;99.90